sensor_id;sensor_type;location;lat;lon;timestamp;P1;durP1;ratioP1;P2;durP2;ratioP2
75542;SDS011;64129;53.508;10.476;2023-10-13T00:00:54;6.43;;;3.10;;
75542;SDS011;64129;53.508;10.476;2023-10-13T00:03:33;6.80;;;2.92;;
75542;SDS011;64129;53.508;10.476;2023-10-13T00:06:08;8.23;;;2.97;;
75542;SDS011;64129;53.508;10.476;2023-10-13T00:08:41;8.50;;;2.95;;
75542;SDS011;64129;53.508;10.476;2023-10-13T00:11:11;6.95;;;3.60;;
75542;SDS011;64129;53.508;10.476;2023-10-13T00:14:12;10.60;;;2.65;;
75542;SDS011;64129;53.508;10.476;2023-10-13T00:17:05;6.13;;;2.90;;
75542;SDS011;64129;53.508;10.476;2023-10-13T00:19:39;5.57;;;2.88;;
75542;SDS011;64129;53.508;10.476;2023-10-13T00:22:31;7.13;;;2.70;;
75542;SDS011;64129;53.508;10.476;2023-10-13T00:25:12;7.68;;;2.88;;
75542;SDS011;64129;53.508;10.476;2023-10-13T00:28:30;8.10;;;2.83;;
75542;SDS011;64129;53.508;10.476;2023-10-13T00:31:14;8.60;;;3.22;;
75542;SDS011;64129;53.508;10.476;2023-10-13T00:33:41;9.75;;;3.70;;
75542;SDS011;64129;53.508;10.476;2023-10-13T00:36:22;9.60;;;3.42;;
75542;SDS011;64129;53.508;10.476;2023-10-13T00:39:03;7.18;;;3.45;;
75542;SDS011;64129;53.508;10.476;2023-10-13T00:42:03;7.55;;;3.05;;
75542;SDS011;64129;53.508;10.476;2023-10-13T00:45:05;8.55;;;3.38;;
75542;SDS011;64129;53.508;10.476;2023-10-13T00:47:53;5.70;;;3.05;;
75542;SDS011;64129;53.508;10.476;2023-10-13T00:50:30;8.13;;;3.40;;
75542;SDS011;64129;53.508;10.476;2023-10-13T00:53:20;6.82;;;2.90;;
75542;SDS011;64129;53.508;10.476;2023-10-13T00:59:02;8.90;;;3.72;;
75542;SDS011;64129;53.508;10.476;2023-10-13T01:01:44;7.30;;;2.88;;
75542;SDS011;64129;53.508;10.476;2023-10-13T01:04:25;9.68;;;3.45;;
75542;SDS011;64129;53.508;10.476;2023-10-13T01:07:14;10.02;;;3.58;;
75542;SDS011;64129;53.508;10.476;2023-10-13T01:09:57;5.80;;;3.40;;
75542;SDS011;64129;53.508;10.476;2023-10-13T01:12:32;4.93;;;2.88;;
75542;SDS011;64129;53.508;10.476;2023-10-13T01:15:04;7.65;;;3.22;;
75542;SDS011;64129;53.508;10.476;2023-10-13T01:17:40;8.60;;;3.17;;
75542;SDS011;64129;53.508;10.476;2023-10-13T01:20:30;8.27;;;3.45;;
75542;SDS011;64129;53.508;10.476;2023-10-13T01:22:57;12.30;;;4.03;;
75542;SDS011;64129;53.508;10.476;2023-10-13T01:25:26;6.53;;;3.10;;
75542;SDS011;64129;53.508;10.476;2023-10-13T01:28:03;6.80;;;3.10;;
75542;SDS011;64129;53.508;10.476;2023-10-13T01:34:35;10.20;;;4.05;;
75542;SDS011;64129;53.508;10.476;2023-10-13T01:37:32;6.00;;;3.10;;
75542;SDS011;64129;53.508;10.476;2023-10-13T01:40:03;12.27;;;4.10;;
75542;SDS011;64129;53.508;10.476;2023-10-13T01:42:42;10.65;;;3.58;;
75542;SDS011;64129;53.508;10.476;2023-10-13T01:45:26;7.75;;;3.80;;
75542;SDS011;64129;53.508;10.476;2023-10-13T01:48:09;6.20;;;4.10;;
75542;SDS011;64129;53.508;10.476;2023-10-13T01:50:39;8.57;;;4.07;;
75542;SDS011;64129;53.508;10.476;2023-10-13T01:53:32;10.77;;;4.35;;
75542;SDS011;64129;53.508;10.476;2023-10-13T01:56:19;10.98;;;4.18;;
75542;SDS011;64129;53.508;10.476;2023-10-13T01:59:00;12.73;;;4.35;;
75542;SDS011;64129;53.508;10.476;2023-10-13T02:01:52;9.80;;;4.35;;
75542;SDS011;64129;53.508;10.476;2023-10-13T02:04:58;13.27;;;4.95;;
75542;SDS011;64129;53.508;10.476;2023-10-13T02:07:35;11.45;;;5.30;;
75542;SDS011;64129;53.508;10.476;2023-10-13T02:10:11;10.68;;;5.07;;
75542;SDS011;64129;53.508;10.476;2023-10-13T02:12:53;11.77;;;5.72;;
75542;SDS011;64129;53.508;10.476;2023-10-13T02:15:28;10.95;;;5.50;;
75542;SDS011;64129;53.508;10.476;2023-10-13T02:18:08;15.57;;;6.32;;
75542;SDS011;64129;53.508;10.476;2023-10-13T02:20:45;12.68;;;6.43;;
75542;SDS011;64129;53.508;10.476;2023-10-13T02:23:53;14.45;;;6.45;;
75542;SDS011;64129;53.508;10.476;2023-10-13T02:26:54;18.35;;;6.20;;
75542;SDS011;64129;53.508;10.476;2023-10-13T02:29:30;18.92;;;6.60;;
75542;SDS011;64129;53.508;10.476;2023-10-13T02:32:04;18.40;;;7.20;;
75542;SDS011;64129;53.508;10.476;2023-10-13T02:34:49;14.38;;;6.53;;
75542;SDS011;64129;53.508;10.476;2023-10-13T02:37:31;14.70;;;7.20;;
75542;SDS011;64129;53.508;10.476;2023-10-13T02:40:17;19.02;;;8.27;;
75542;SDS011;64129;53.508;10.476;2023-10-13T02:42:51;15.93;;;7.18;;
75542;SDS011;64129;53.508;10.476;2023-10-13T02:45:25;13.98;;;8.02;;
75542;SDS011;64129;53.508;10.476;2023-10-13T02:47:58;16.65;;;7.70;;
75542;SDS011;64129;53.508;10.476;2023-10-13T02:50:58;14.98;;;7.15;;
75542;SDS011;64129;53.508;10.476;2023-10-13T02:53:48;17.23;;;8.23;;
75542;SDS011;64129;53.508;10.476;2023-10-13T02:56:37;16.17;;;8.05;;
75542;SDS011;64129;53.508;10.476;2023-10-13T02:59:26;22.80;;;9.75;;
75542;SDS011;64129;53.508;10.476;2023-10-13T03:02:22;19.52;;;8.90;;
75542;SDS011;64129;53.508;10.476;2023-10-13T03:04:58;18.02;;;9.55;;
75542;SDS011;64129;53.508;10.476;2023-10-13T03:07:57;17.10;;;8.88;;
75542;SDS011;64129;53.508;10.476;2023-10-13T03:10:31;19.30;;;9.07;;
75542;SDS011;64129;53.508;10.476;2023-10-13T03:13:01;20.58;;;9.30;;
75542;SDS011;64129;53.508;10.476;2023-10-13T03:15:37;14.75;;;8.07;;
75542;SDS011;64129;53.508;10.476;2023-10-13T03:18:13;15.55;;;7.97;;
75542;SDS011;64129;53.508;10.476;2023-10-13T03:20:47;13.95;;;8.02;;
75542;SDS011;64129;53.508;10.476;2023-10-13T03:23:31;16.92;;;8.73;;
75542;SDS011;64129;53.508;10.476;2023-10-13T03:26:26;13.85;;;8.00;;
75542;SDS011;64129;53.508;10.476;2023-10-13T03:29:09;11.40;;;7.15;;
75542;SDS011;64129;53.508;10.476;2023-10-13T03:31:42;16.92;;;8.60;;
75542;SDS011;64129;53.508;10.476;2023-10-13T03:34:12;12.52;;;6.80;;
75542;SDS011;64129;53.508;10.476;2023-10-13T03:36:42;12.93;;;7.40;;
75542;SDS011;64129;53.508;10.476;2023-10-13T03:39:38;15.85;;;8.07;;
75542;SDS011;64129;53.508;10.476;2023-10-13T03:42:33;16.17;;;8.23;;
75542;SDS011;64129;53.508;10.476;2023-10-13T03:45:03;17.20;;;8.43;;
75542;SDS011;64129;53.508;10.476;2023-10-13T03:47:49;16.05;;;7.78;;
75542;SDS011;64129;53.508;10.476;2023-10-13T03:50:20;14.75;;;8.20;;
75542;SDS011;64129;53.508;10.476;2023-10-13T03:52:58;17.17;;;8.38;;
75542;SDS011;64129;53.508;10.476;2023-10-13T03:55:47;16.27;;;8.35;;
75542;SDS011;64129;53.508;10.476;2023-10-13T03:58:31;20.13;;;8.75;;
75542;SDS011;64129;53.508;10.476;2023-10-13T04:01:00;17.38;;;9.68;;
75542;SDS011;64129;53.508;10.476;2023-10-13T04:06:43;16.35;;;9.55;;
75542;SDS011;64129;53.508;10.476;2023-10-13T04:09:29;14.32;;;7.55;;
75542;SDS011;64129;53.508;10.476;2023-10-13T04:11:59;12.98;;;7.47;;
75542;SDS011;64129;53.508;10.476;2023-10-13T04:14:42;13.68;;;7.53;;
75542;SDS011;64129;53.508;10.476;2023-10-13T04:17:55;9.85;;;6.22;;
75542;SDS011;64129;53.508;10.476;2023-10-13T04:20:41;11.77;;;8.10;;
75542;SDS011;64129;53.508;10.476;2023-10-13T04:23:17;9.60;;;6.20;;
75542;SDS011;64129;53.508;10.476;2023-10-13T04:26:13;10.07;;;6.32;;
75542;SDS011;64129;53.508;10.476;2023-10-13T04:28:50;15.13;;;7.00;;
75542;SDS011;64129;53.508;10.476;2023-10-13T04:31:19;12.38;;;8.65;;
75542;SDS011;64129;53.508;10.476;2023-10-13T04:34:14;14.30;;;8.68;;
75542;SDS011;64129;53.508;10.476;2023-10-13T04:37:26;16.27;;;8.50;;
75542;SDS011;64129;53.508;10.476;2023-10-13T04:40:26;16.38;;;9.23;;
75542;SDS011;64129;53.508;10.476;2023-10-13T04:43:09;18.85;;;8.95;;
75542;SDS011;64129;53.508;10.476;2023-10-13T04:46:09;17.20;;;10.02;;
75542;SDS011;64129;53.508;10.476;2023-10-13T04:49:06;19.08;;;10.20;;
75542;SDS011;64129;53.508;10.476;2023-10-13T04:52:06;25.70;;;11.30;;
75542;SDS011;64129;53.508;10.476;2023-10-13T04:54:57;25.40;;;12.75;;
75542;SDS011;64129;53.508;10.476;2023-10-13T04:57:39;23.50;;;11.98;;
75542;SDS011;64129;53.508;10.476;2023-10-13T05:00:43;30.38;;;14.23;;
75542;SDS011;64129;53.508;10.476;2023-10-13T05:03:44;22.15;;;11.80;;
75542;SDS011;64129;53.508;10.476;2023-10-13T05:07:00;28.25;;;13.60;;
75542;SDS011;64129;53.508;10.476;2023-10-13T05:09:48;30.90;;;15.05;;
75542;SDS011;64129;53.508;10.476;2023-10-13T05:12:47;29.60;;;14.25;;
75542;SDS011;64129;53.508;10.476;2023-10-13T05:15:42;29.13;;;13.75;;
75542;SDS011;64129;53.508;10.476;2023-10-13T05:18:40;31.83;;;15.30;;
75542;SDS011;64129;53.508;10.476;2023-10-13T05:21:49;33.20;;;16.20;;
75542;SDS011;64129;53.508;10.476;2023-10-13T05:24:37;38.40;;;18.55;;
75542;SDS011;64129;53.508;10.476;2023-10-13T05:27:31;36.88;;;18.15;;
75542;SDS011;64129;53.508;10.476;2023-10-13T05:30:24;37.75;;;18.30;;
75542;SDS011;64129;53.508;10.476;2023-10-13T05:33:17;34.13;;;17.17;;
75542;SDS011;64129;53.508;10.476;2023-10-13T05:36:16;37.08;;;16.85;;
75542;SDS011;64129;53.508;10.476;2023-10-13T05:39:15;34.00;;;17.38;;
75542;SDS011;64129;53.508;10.476;2023-10-13T05:42:08;38.60;;;17.92;;
75542;SDS011;64129;53.508;10.476;2023-10-13T05:45:08;35.25;;;17.90;;
75542;SDS011;64129;53.508;10.476;2023-10-13T05:48:06;31.25;;;16.83;;
75542;SDS011;64129;53.508;10.476;2023-10-13T05:51:02;46.33;;;19.65;;
75542;SDS011;64129;53.508;10.476;2023-10-13T05:53:52;46.70;;;20.58;;
75542;SDS011;64129;53.508;10.476;2023-10-13T05:56:48;40.58;;;20.00;;
75542;SDS011;64129;53.508;10.476;2023-10-13T05:59:41;42.47;;;20.13;;
75542;SDS011;64129;53.508;10.476;2023-10-13T06:02:39;43.22;;;20.67;;
75542;SDS011;64129;53.508;10.476;2023-10-13T06:05:31;42.72;;;20.80;;
75542;SDS011;64129;53.508;10.476;2023-10-13T06:08:40;42.80;;;20.63;;
75542;SDS011;64129;53.508;10.476;2023-10-13T06:11:33;42.67;;;22.13;;
75542;SDS011;64129;53.508;10.476;2023-10-13T06:14:29;39.95;;;19.60;;
75542;SDS011;64129;53.508;10.476;2023-10-13T06:17:20;48.05;;;22.48;;
75542;SDS011;64129;53.508;10.476;2023-10-13T06:20:19;41.30;;;21.38;;
75542;SDS011;64129;53.508;10.476;2023-10-13T06:23:24;38.35;;;20.73;;
75542;SDS011;64129;53.508;10.476;2023-10-13T06:29:23;37.80;;;21.17;;
75542;SDS011;64129;53.508;10.476;2023-10-13T06:31:55;44.67;;;22.98;;
75542;SDS011;64129;53.508;10.476;2023-10-13T06:34:33;44.58;;;22.35;;
75542;SDS011;64129;53.508;10.476;2023-10-13T06:37:26;40.80;;;22.00;;
75542;SDS011;64129;53.508;10.476;2023-10-13T06:40:23;43.97;;;23.17;;
75542;SDS011;64129;53.508;10.476;2023-10-13T06:46:20;43.75;;;22.65;;
75542;SDS011;64129;53.508;10.476;2023-10-13T06:48:50;40.60;;;22.15;;
75542;SDS011;64129;53.508;10.476;2023-10-13T06:51:28;48.15;;;23.88;;
75542;SDS011;64129;53.508;10.476;2023-10-13T06:54:05;44.85;;;22.50;;
75542;SDS011;64129;53.508;10.476;2023-10-13T06:56:55;45.10;;;22.95;;
75542;SDS011;64129;53.508;10.476;2023-10-13T06:59:29;46.88;;;23.25;;
75542;SDS011;64129;53.508;10.476;2023-10-13T07:02:13;46.10;;;23.98;;
75542;SDS011;64129;53.508;10.476;2023-10-13T07:04:57;43.63;;;23.08;;
75542;SDS011;64129;53.508;10.476;2023-10-13T07:07:45;38.70;;;20.92;;
75542;SDS011;64129;53.508;10.476;2023-10-13T07:10:12;36.97;;;21.63;;
75542;SDS011;64129;53.508;10.476;2023-10-13T07:12:40;38.97;;;20.73;;
75542;SDS011;64129;53.508;10.476;2023-10-13T07:15:10;37.00;;;21.90;;
75542;SDS011;64129;53.508;10.476;2023-10-13T07:17:51;42.03;;;22.98;;
75542;SDS011;64129;53.508;10.476;2023-10-13T07:20:47;42.78;;;22.17;;
75542;SDS011;64129;53.508;10.476;2023-10-13T07:23:16;38.40;;;22.45;;
75542;SDS011;64129;53.508;10.476;2023-10-13T07:25:55;35.20;;;21.15;;
75542;SDS011;64129;53.508;10.476;2023-10-13T07:28:33;34.63;;;19.95;;
75542;SDS011;64129;53.508;10.476;2023-10-13T07:31:17;37.33;;;22.10;;
75542;SDS011;64129;53.508;10.476;2023-10-13T07:33:47;35.30;;;19.98;;
75542;SDS011;64129;53.508;10.476;2023-10-13T07:36:19;28.70;;;19.27;;
75542;SDS011;64129;53.508;10.476;2023-10-13T07:39:10;31.92;;;18.85;;
75542;SDS011;64129;53.508;10.476;2023-10-13T07:41:53;32.78;;;18.88;;
75542;SDS011;64129;53.508;10.476;2023-10-13T07:44:34;26.17;;;17.77;;
75542;SDS011;64129;53.508;10.476;2023-10-13T07:47:03;33.42;;;20.25;;
75542;SDS011;64129;53.508;10.476;2023-10-13T07:49:38;31.60;;;20.38;;
75542;SDS011;64129;53.508;10.476;2023-10-13T07:52:07;28.33;;;17.35;;
75542;SDS011;64129;53.508;10.476;2023-10-13T07:55:02;27.38;;;17.38;;
75542;SDS011;64129;53.508;10.476;2023-10-13T07:58:00;25.65;;;15.20;;
75542;SDS011;64129;53.508;10.476;2023-10-13T08:00:52;24.65;;;17.17;;
75542;SDS011;64129;53.508;10.476;2023-10-13T08:03:44;25.02;;;15.52;;
75542;SDS011;64129;53.508;10.476;2023-10-13T08:06:15;22.98;;;15.40;;
75542;SDS011;64129;53.508;10.476;2023-10-13T08:08:49;22.48;;;15.73;;
75542;SDS011;64129;53.508;10.476;2023-10-13T08:11:17;23.52;;;16.13;;
75542;SDS011;64129;53.508;10.476;2023-10-13T08:14:26;21.38;;;14.02;;
75542;SDS011;64129;53.508;10.476;2023-10-13T08:17:14;20.50;;;13.63;;
75542;SDS011;64129;53.508;10.476;2023-10-13T08:19:57;16.02;;;11.18;;
75542;SDS011;64129;53.508;10.476;2023-10-13T08:22:27;18.20;;;14.05;;
75542;SDS011;64129;53.508;10.476;2023-10-13T08:25:16;17.92;;;12.05;;
75542;SDS011;64129;53.508;10.476;2023-10-13T08:28:09;17.27;;;12.73;;
75542;SDS011;64129;53.508;10.476;2023-10-13T08:31:12;17.08;;;11.48;;
75542;SDS011;64129;53.508;10.476;2023-10-13T08:33:58;16.80;;;12.23;;
75542;SDS011;64129;53.508;10.476;2023-10-13T08:36:39;16.08;;;12.10;;
75542;SDS011;64129;53.508;10.476;2023-10-13T08:39:15;16.98;;;13.02;;
75542;SDS011;64129;53.508;10.476;2023-10-13T08:42:04;16.95;;;11.98;;
75542;SDS011;64129;53.508;10.476;2023-10-13T08:44:43;15.18;;;11.50;;
75542;SDS011;64129;53.508;10.476;2023-10-13T08:47:21;15.27;;;11.07;;
75542;SDS011;64129;53.508;10.476;2023-10-13T08:50:03;15.65;;;10.63;;
75542;SDS011;64129;53.508;10.476;2023-10-13T08:53:03;11.98;;;8.98;;
75542;SDS011;64129;53.508;10.476;2023-10-13T08:56:01;12.45;;;9.20;;
75542;SDS011;64129;53.508;10.476;2023-10-13T09:01:35;9.50;;;7.55;;
75542;SDS011;64129;53.508;10.476;2023-10-13T09:04:28;10.07;;;8.07;;
75542;SDS011;64129;53.508;10.476;2023-10-13T09:07:22;11.00;;;7.80;;
75542;SDS011;64129;53.508;10.476;2023-10-13T09:09:52;9.07;;;6.32;;
75542;SDS011;64129;53.508;10.476;2023-10-13T09:12:32;7.35;;;6.07;;
75542;SDS011;64129;53.508;10.476;2023-10-13T09:15:13;9.68;;;7.00;;
75542;SDS011;64129;53.508;10.476;2023-10-13T09:17:40;7.32;;;5.95;;
75542;SDS011;64129;53.508;10.476;2023-10-13T09:20:29;10.05;;;6.90;;
75542;SDS011;64129;53.508;10.476;2023-10-13T09:23:13;8.77;;;5.97;;
75542;SDS011;64129;53.508;10.476;2023-10-13T09:26:12;9.10;;;6.25;;
75542;SDS011;64129;53.508;10.476;2023-10-13T09:28:58;7.47;;;5.40;;
75542;SDS011;64129;53.508;10.476;2023-10-13T09:31:27;5.47;;;4.60;;
75542;SDS011;64129;53.508;10.476;2023-10-13T09:34:02;5.72;;;4.40;;
75542;SDS011;64129;53.508;10.476;2023-10-13T09:36:32;5.47;;;4.97;;
75542;SDS011;64129;53.508;10.476;2023-10-13T09:39:03;6.72;;;4.85;;
75542;SDS011;64129;53.508;10.476;2023-10-13T09:42:01;5.30;;;3.97;;
75542;SDS011;64129;53.508;10.476;2023-10-13T09:44:33;5.03;;;3.40;;
75542;SDS011;64129;53.508;10.476;2023-10-13T09:47:16;4.40;;;4.00;;
75542;SDS011;64129;53.508;10.476;2023-10-13T09:50:08;4.47;;;3.85;;
75542;SDS011;64129;53.508;10.476;2023-10-13T09:52:47;4.43;;;4.03;;
75542;SDS011;64129;53.508;10.476;2023-10-13T09:55:27;7.03;;;4.85;;
75542;SDS011;64129;53.508;10.476;2023-10-13T09:58:12;5.97;;;4.05;;
75542;SDS011;64129;53.508;10.476;2023-10-13T10:01:14;5.57;;;4.32;;
75542;SDS011;64129;53.508;10.476;2023-10-13T10:04:11;5.82;;;3.95;;
75542;SDS011;64129;53.508;10.476;2023-10-13T10:06:58;3.50;;;3.15;;
75542;SDS011;64129;53.508;10.476;2023-10-13T10:09:55;5.65;;;3.90;;
75542;SDS011;64129;53.508;10.476;2023-10-13T10:12:42;3.65;;;3.15;;
75542;SDS011;64129;53.508;10.476;2023-10-13T10:15:26;5.22;;;3.80;;
75542;SDS011;64129;53.508;10.476;2023-10-13T10:18:23;4.88;;;3.85;;
75542;SDS011;64129;53.508;10.476;2023-10-13T10:21:06;7.60;;;4.22;;
75542;SDS011;64129;53.508;10.476;2023-10-13T10:23:54;4.40;;;3.95;;
75542;SDS011;64129;53.508;10.476;2023-10-13T10:26:23;7.60;;;3.97;;
75542;SDS011;64129;53.508;10.476;2023-10-13T10:28:56;9.85;;;4.80;;
75542;SDS011;64129;53.508;10.476;2023-10-13T10:31:31;9.18;;;5.47;;
75542;SDS011;64129;53.508;10.476;2023-10-13T10:34:32;8.70;;;4.85;;
75542;SDS011;64129;53.508;10.476;2023-10-13T10:37:01;6.03;;;3.97;;
75542;SDS011;64129;53.508;10.476;2023-10-13T10:39:42;7.38;;;5.10;;
75542;SDS011;64129;53.508;10.476;2023-10-13T10:42:39;6.63;;;5.35;;
75542;SDS011;64129;53.508;10.476;2023-10-13T10:45:08;7.07;;;5.43;;
75542;SDS011;64129;53.508;10.476;2023-10-13T10:47:49;6.43;;;4.78;;
75542;SDS011;64129;53.508;10.476;2023-10-13T10:50:31;6.85;;;4.95;;
75542;SDS011;64129;53.508;10.476;2023-10-13T10:53:07;5.40;;;4.20;;
75542;SDS011;64129;53.508;10.476;2023-10-13T10:55:51;6.35;;;4.40;;
75542;SDS011;64129;53.508;10.476;2023-10-13T10:58:22;8.25;;;4.78;;
75542;SDS011;64129;53.508;10.476;2023-10-13T11:01:09;6.68;;;5.15;;
75542;SDS011;64129;53.508;10.476;2023-10-13T11:04:10;7.60;;;4.68;;
75542;SDS011;64129;53.508;10.476;2023-10-13T11:07:03;8.20;;;5.00;;
75542;SDS011;64129;53.508;10.476;2023-10-13T11:09:34;6.35;;;5.10;;
75542;SDS011;64129;53.508;10.476;2023-10-13T11:14:42;8.57;;;5.22;;
75542;SDS011;64129;53.508;10.476;2023-10-13T11:17:47;7.15;;;4.32;;
75542;SDS011;64129;53.508;10.476;2023-10-13T11:20:43;4.78;;;3.40;;
75542;SDS011;64129;53.508;10.476;2023-10-13T11:26:55;5.68;;;5.00;;
75542;SDS011;64129;53.508;10.476;2023-10-13T11:29:33;5.43;;;3.80;;
75542;SDS011;64129;53.508;10.476;2023-10-13T11:32:07;7.03;;;5.15;;
75542;SDS011;64129;53.508;10.476;2023-10-13T11:34:35;7.55;;;4.97;;
75542;SDS011;64129;53.508;10.476;2023-10-13T11:37:40;8.52;;;4.80;;
75542;SDS011;64129;53.508;10.476;2023-10-13T11:40:28;8.15;;;4.63;;
75542;SDS011;64129;53.508;10.476;2023-10-13T11:43:21;8.70;;;4.32;;
75542;SDS011;64129;53.508;10.476;2023-10-13T11:46:11;7.82;;;5.20;;
75542;SDS011;64129;53.508;10.476;2023-10-13T11:48:49;9.10;;;4.78;;
75542;SDS011;64129;53.508;10.476;2023-10-13T11:51:41;6.95;;;5.32;;
75542;SDS011;64129;53.508;10.476;2023-10-13T11:54:26;9.05;;;4.90;;
75542;SDS011;64129;53.508;10.476;2023-10-13T11:57:33;7.05;;;4.78;;
75542;SDS011;64129;53.508;10.476;2023-10-13T12:00:01;10.07;;;4.85;;
75542;SDS011;64129;53.508;10.476;2023-10-13T12:02:53;5.82;;;4.45;;
75542;SDS011;64129;53.508;10.476;2023-10-13T12:05:42;6.65;;;4.30;;
75542;SDS011;64129;53.508;10.476;2023-10-13T12:08:29;6.90;;;4.53;;
75542;SDS011;64129;53.508;10.476;2023-10-13T12:11:16;7.68;;;4.50;;
75542;SDS011;64129;53.508;10.476;2023-10-13T12:14:16;5.90;;;4.00;;
75542;SDS011;64129;53.508;10.476;2023-10-13T12:17:34;8.90;;;4.93;;
75542;SDS011;64129;53.508;10.476;2023-10-13T12:20:07;8.90;;;4.97;;
75542;SDS011;64129;53.508;10.476;2023-10-13T12:23:05;8.38;;;4.45;;
75542;SDS011;64129;53.508;10.476;2023-10-13T12:25:46;5.22;;;3.70;;
75542;SDS011;64129;53.508;10.476;2023-10-13T12:28:22;6.10;;;3.67;;
75542;SDS011;64129;53.508;10.476;2023-10-13T12:31:02;7.28;;;3.97;;
75542;SDS011;64129;53.508;10.476;2023-10-13T12:33:38;7.88;;;4.35;;
75542;SDS011;64129;53.508;10.476;2023-10-13T12:36:08;7.05;;;4.03;;
75542;SDS011;64129;53.508;10.476;2023-10-13T12:38:38;6.55;;;4.03;;
75542;SDS011;64129;53.508;10.476;2023-10-13T12:41:16;6.57;;;3.53;;
75542;SDS011;64129;53.508;10.476;2023-10-13T12:44:15;7.25;;;4.50;;
75542;SDS011;64129;53.508;10.476;2023-10-13T12:47:07;8.90;;;4.53;;
75542;SDS011;64129;53.508;10.476;2023-10-13T12:52:55;9.95;;;4.15;;
75542;SDS011;64129;53.508;10.476;2023-10-13T12:55:23;7.15;;;4.00;;
75542;SDS011;64129;53.508;10.476;2023-10-13T12:58:03;5.55;;;3.75;;
75542;SDS011;64129;53.508;10.476;2023-10-13T13:00:31;6.90;;;3.50;;
75542;SDS011;64129;53.508;10.476;2023-10-13T13:03:03;4.05;;;3.42;;
75542;SDS011;64129;53.508;10.476;2023-10-13T13:05:45;7.80;;;4.05;;
75542;SDS011;64129;53.508;10.476;2023-10-13T13:08:18;8.85;;;4.22;;
75542;SDS011;64129;53.508;10.476;2023-10-13T13:10:53;7.18;;;4.35;;
75542;SDS011;64129;53.508;10.476;2023-10-13T13:13:25;9.55;;;4.63;;
75542;SDS011;64129;53.508;10.476;2023-10-13T13:15:54;6.05;;;3.85;;
75542;SDS011;64129;53.508;10.476;2023-10-13T13:18:25;6.03;;;3.25;;
75542;SDS011;64129;53.508;10.476;2023-10-13T13:20:52;5.80;;;4.63;;
75542;SDS011;64129;53.508;10.476;2023-10-13T13:23:22;6.70;;;4.63;;
75542;SDS011;64129;53.508;10.476;2023-10-13T13:26:06;9.57;;;4.20;;
75542;SDS011;64129;53.508;10.476;2023-10-13T13:28:45;11.98;;;4.65;;
75542;SDS011;64129;53.508;10.476;2023-10-13T13:31:23;9.60;;;4.15;;
75542;SDS011;64129;53.508;10.476;2023-10-13T13:34:05;13.95;;;4.30;;
75542;SDS011;64129;53.508;10.476;2023-10-13T13:36:39;8.82;;;5.03;;
75542;SDS011;64129;53.508;10.476;2023-10-13T13:39:14;8.57;;;5.03;;
75542;SDS011;64129;53.508;10.476;2023-10-13T13:41:59;6.78;;;4.25;;
75542;SDS011;64129;53.508;10.476;2023-10-13T13:44:29;7.43;;;4.28;;
75542;SDS011;64129;53.508;10.476;2023-10-13T13:47:18;8.30;;;3.75;;
75542;SDS011;64129;53.508;10.476;2023-10-13T13:49:45;7.78;;;4.25;;
75542;SDS011;64129;53.508;10.476;2023-10-13T13:55:17;9.18;;;4.43;;
75542;SDS011;64129;53.508;10.476;2023-10-13T13:57:48;8.95;;;4.32;;
75542;SDS011;64129;53.508;10.476;2023-10-13T14:00:17;8.00;;;4.22;;
75542;SDS011;64129;53.508;10.476;2023-10-13T14:03:10;9.65;;;4.20;;
75542;SDS011;64129;53.508;10.476;2023-10-13T14:06:00;9.13;;;4.50;;
75542;SDS011;64129;53.508;10.476;2023-10-13T14:08:37;7.05;;;4.03;;
75542;SDS011;64129;53.508;10.476;2023-10-13T14:11:08;8.55;;;4.50;;
75542;SDS011;64129;53.508;10.476;2023-10-13T14:14:14;11.70;;;4.90;;
75542;SDS011;64129;53.508;10.476;2023-10-13T14:17:04;6.18;;;4.05;;
75542;SDS011;64129;53.508;10.476;2023-10-13T14:19:39;7.20;;;3.92;;
75542;SDS011;64129;53.508;10.476;2023-10-13T14:22:22;9.15;;;4.65;;
75542;SDS011;64129;53.508;10.476;2023-10-13T14:24:53;7.80;;;3.80;;
75542;SDS011;64129;53.508;10.476;2023-10-13T14:31:07;8.60;;;5.20;;
75542;SDS011;64129;53.508;10.476;2023-10-13T14:33:41;9.30;;;5.43;;
75542;SDS011;64129;53.508;10.476;2023-10-13T14:36:11;6.88;;;4.55;;
75542;SDS011;64129;53.508;10.476;2023-10-13T14:38:39;13.75;;;5.35;;
75542;SDS011;64129;53.508;10.476;2023-10-13T14:41:14;9.57;;;4.60;;
75542;SDS011;64129;53.508;10.476;2023-10-13T14:44:03;9.95;;;4.90;;
75542;SDS011;64129;53.508;10.476;2023-10-13T14:46:39;9.52;;;4.05;;
75542;SDS011;64129;53.508;10.476;2023-10-13T14:49:09;10.70;;;4.78;;
75542;SDS011;64129;53.508;10.476;2023-10-13T14:51:41;8.27;;;4.60;;
75542;SDS011;64129;53.508;10.476;2023-10-13T14:54:27;9.70;;;4.30;;
75542;SDS011;64129;53.508;10.476;2023-10-13T14:57:01;7.28;;;5.18;;
75542;SDS011;64129;53.508;10.476;2023-10-13T14:59:30;9.52;;;5.18;;
75542;SDS011;64129;53.508;10.476;2023-10-13T15:02:09;13.60;;;4.57;;
75542;SDS011;64129;53.508;10.476;2023-10-13T15:04:36;8.02;;;4.38;;
75542;SDS011;64129;53.508;10.476;2023-10-13T15:07:09;7.43;;;4.25;;
75542;SDS011;64129;53.508;10.476;2023-10-13T15:10:19;8.43;;;4.60;;
75542;SDS011;64129;53.508;10.476;2023-10-13T15:13:11;8.65;;;4.40;;
75542;SDS011;64129;53.508;10.476;2023-10-13T15:15:42;7.03;;;4.60;;
75542;SDS011;64129;53.508;10.476;2023-10-13T15:24:54;9.32;;;4.50;;
75542;SDS011;64129;53.508;10.476;2023-10-13T15:27:37;7.65;;;4.43;;
75542;SDS011;64129;53.508;10.476;2023-10-13T15:30:25;10.10;;;4.75;;
75542;SDS011;64129;53.508;10.476;2023-10-13T15:32:57;12.55;;;5.22;;
75542;SDS011;64129;53.508;10.476;2023-10-13T15:35:25;10.52;;;4.85;;
75542;SDS011;64129;53.508;10.476;2023-10-13T15:38:10;11.68;;;4.97;;
75542;SDS011;64129;53.508;10.476;2023-10-13T15:40:58;8.88;;;4.63;;
75542;SDS011;64129;53.508;10.476;2023-10-13T15:43:39;11.68;;;5.10;;
75542;SDS011;64129;53.508;10.476;2023-10-13T15:46:22;10.15;;;5.03;;
75542;SDS011;64129;53.508;10.476;2023-10-13T15:49:14;9.60;;;4.93;;
75542;SDS011;64129;53.508;10.476;2023-10-13T15:51:41;12.10;;;5.45;;
75542;SDS011;64129;53.508;10.476;2023-10-13T16:00:17;7.78;;;4.55;;
75542;SDS011;64129;53.508;10.476;2023-10-13T16:08:04;11.88;;;6.05;;
75542;SDS011;64129;53.508;10.476;2023-10-13T16:10:38;8.60;;;5.07;;
75542;SDS011;64129;53.508;10.476;2023-10-13T16:13:05;12.02;;;4.20;;
75542;SDS011;64129;53.508;10.476;2023-10-13T16:15:36;12.32;;;5.32;;
75542;SDS011;64129;53.508;10.476;2023-10-13T16:18:09;10.85;;;5.10;;
75542;SDS011;64129;53.508;10.476;2023-10-13T16:20:36;13.85;;;4.78;;
75542;SDS011;64129;53.508;10.476;2023-10-13T16:23:03;12.23;;;5.20;;
75542;SDS011;64129;53.508;10.476;2023-10-13T16:25:31;13.63;;;5.13;;
75542;SDS011;64129;53.508;10.476;2023-10-13T16:27:58;9.38;;;5.32;;
75542;SDS011;64129;53.508;10.476;2023-10-13T16:30:24;9.30;;;5.32;;
75542;SDS011;64129;53.508;10.476;2023-10-13T16:32:51;13.52;;;4.93;;
75542;SDS011;64129;53.508;10.476;2023-10-13T16:35:18;9.73;;;5.25;;
75542;SDS011;64129;53.508;10.476;2023-10-13T16:37:45;10.02;;;5.07;;
75542;SDS011;64129;53.508;10.476;2023-10-13T16:40:16;13.25;;;5.22;;
75542;SDS011;64129;53.508;10.476;2023-10-13T16:42:47;13.52;;;5.50;;
75542;SDS011;64129;53.508;10.476;2023-10-13T16:45:15;8.93;;;4.78;;
75542;SDS011;64129;53.508;10.476;2023-10-13T16:47:48;15.65;;;5.13;;